CDT,Max TemperatureF,Mean TemperatureF,Min TemperatureF,Max Dew PointF,MeanDew PointF,Min DewpointF,Max Humidity, Mean Humidity, Min Humidity, Max Sea Level PressureIn, Mean Sea Level PressureIn, Min Sea Level PressureIn, Max VisibilityMiles, Mean VisibilityMiles, Min VisibilityMiles, Max Wind SpeedMPH, Mean Wind SpeedMPH, Max Gust SpeedMPH,PrecipitationIn, CloudCover, Events, WindDirDegrees
2013-6-1,87,82,76,73,73,71,88,79,69,30.04,30.00,29.97,10,10,10,20,11,24,0.00,5,,148
2013-6-2,88,81,73,73,72,70,94,77,59,29.99,29.95,29.88,10,9,2,17,6,22,0.00,3,,216
2013-6-3,88,81,74,75,72,69,88,72,55,29.94,29.91,29.86,10,9,2,13,5,21,0.08,3,Rain-Thunderstorm,203
2013-6-4,89,82,74,76,73,72,94,79,63,29.96,29.94,29.91,10,10,10,20,8,23,0.00,3,,139
2013-6-5,87,78,69,75,73,67,85,72,59,29.96,29.93,29.87,10,9,1,30,9,37,0.51,5,Rain,138
2013-6-6,90,79,68,70,68,65,93,72,50,29.87,29.78,29.71,10,10,10,20,8,26,0.00,3,,357
2013-6-7,86,79,71,70,68,65,93,72,51,29.91,29.83,29.77,10,10,10,17,6,22,T,2,,268
2013-6-8,88,81,73,74,72,69,93,74,55,30.05,29.98,29.90,10,9,5,20,8,25,0.25,2,Rain-Thunderstorm,160
2013-6-9,78,74,70,72,71,68,93,88,82,30.11,30.03,29.96,10,6,1,25,9,33,3.07,6,Rain-Thunderstorm,148
2013-6-10,81,77,72,76,73,69,93,84,74,30.11,30.04,29.99,10,8,1,17,5,22,0.94,6,Rain-Thunderstorm,194
2013-6-11,90,83,76,76,74,72,100,78,56,30.11,30.07,30.02,10,9,5,16,6,20,0.00,1,,227
2013-6-12,93,85,76,76,74,72,91,74,56,30.10,30.05,30.01,10,10,9,14,7,17,0.00,1,,242
2013-6-13,95,87,79,76,74,69,85,69,52,30.04,29.97,29.88,10,10,10,18,8,23,0.00,2,,265
2013-6-14,94,87,79,77,72,65,85,65,44,29.96,29.89,29.86,10,10,9,20,8,25,0.00,2,,329
2013-6-15,88,82,75,77,73,64,85,74,62,30.04,30.00,29.94,10,10,9,16,9,21,0.00,3,,121
2013-6-16,90,84,78,77,75,73,91,78,64,30.07,30.03,30.00,10,10,10,17,9,21,0.00,4,,169
2013-6-17,90,85,79,77,74,71,85,72,59,30.04,30.00,29.97,10,10,10,21,10,25,0.01,3,,207
2013-6-18,93,83,73,75,72,67,79,62,44,30.02,29.98,29.92,10,9,1,20,10,29,0.81,5,Rain-Thunderstorm,244
2013-6-19,88,81,73,75,72,66,94,75,55,30.04,30.00,29.94,10,8,0,20,4,24,1.30,4,Rain-Thunderstorm,240
2013-6-20,92,83,74,74,72,70,94,73,52,30.10,30.06,30.01,10,10,9,16,4,20,0.00,2,,351
2013-6-21,87,81,74,74,72,70,93,78,63,30.14,30.09,30.05,10,10,2,15,6,20,0.05,2,Rain,66
2013-6-22,88,82,75,74,72,71,94,77,59,30.13,30.08,30.03,10,10,9,13,6,17,0.00,0,,109
2013-6-23,87,82,76,76,73,71,88,76,63,30.12,30.08,30.04,10,9,2,18,7,23,0.28,5,Rain,138
2013-6-24,89,83,76,76,74,72,94,77,59,30.18,30.13,30.09,10,9,1,17,5,26,0.44,3,Rain,170
2013-6-25,89,83,77,75,74,72,94,77,59,30.14,30.10,30.04,10,10,10,12,5,17,T,3,Rain-Thunderstorm,133
2013-6-26,90,83,75,76,73,72,87,73,59,30.09,30.04,30.00,10,10,10,15,5,20,0.01,1,Rain,191
2013-6-27,94,86,78,77,75,71,85,67,49,30.03,29.98,29.91,10,10,10,14,7,17,T,2,,257
2013-6-28,96,88,79,79,76,71,88,69,49,29.93,29.86,29.77,10,10,2,15,9,24,0.15,1,Rain,249
2013-6-29,88,81,74,79,72,66,85,74,63,29.81,29.76,29.70,10,10,2,29,6,37,0.06,3,Rain-Thunderstorm,259
2013-6-30,90,81,72,73,71,68,94,73,52,29.78,29.74,29.71,10,9,0,16,2,28,0.39,3,Fog-Rain-Thunderstorm,271